Pagrindinis puslapis
METAR-TAF:

METAR-TAF

Oro uostai :

Diurbelis, Senegalas

platuma: 14-39N, ilguma: 016-14W, Aukštis: 7 m

Dabartinis oras

Ataskaita buvo paskelbta 26 minutes, ne 16:00 UTC
Vėjas 4 kt iš Pietvakarių
Temperatūra 30°C
Drėgmė 70%
Slėgis 1013 hPa
Matomumas 10 km arba daugiau
Išsisklaidę debesys ne aukštis 1300 ft

METAR: GOOD 211600Z 22004KT 9999 SCT013 30/24 Q1013

Laikas: 16:26 (16:26 UTC)


TAF: trūkstamas

Orai ataskaitas ir orų prognozės (METAR, TAF).

turimą stotys yra geltonos ir raudonos taškus žemėlapyje.

Perkelti pele per norėdami pamatyti stoties vardą.

Tada spustelėkite, norėdami matyti oro stebėjimo ir prognozės.

Norėdami pakeisti žemėlapį: spustelėkite ant žalios mygtukų su juodo kryžiaus žemyn,; žalią mygtuką su brūkšneliu, jei norite nutolinti; arba žalių rodyklių gretimoms žemėlapius.


METAR-TAF: